sensor_id;sensor_type;location;lat;lon;timestamp;P1;durP1;ratioP1;P2;durP2;ratioP2
62711;SDS011;48772;55.586;37.730;2023-07-13T00:00:36;2.78;;;2.00;;
62711;SDS011;48772;55.586;37.730;2023-07-13T00:03:02;3.92;;;2.10;;
62711;SDS011;48772;55.586;37.730;2023-07-13T00:05:30;3.47;;;2.05;;
62711;SDS011;48772;55.586;37.730;2023-07-13T00:07:56;3.47;;;2.10;;
62711;SDS011;48772;55.586;37.730;2023-07-13T00:10:22;3.13;;;2.10;;
62711;SDS011;48772;55.586;37.730;2023-07-13T00:12:48;2.42;;;1.88;;
62711;SDS011;48772;55.586;37.730;2023-07-13T00:15:20;3.05;;;1.90;;
62711;SDS011;48772;55.586;37.730;2023-07-13T00:17:51;2.13;;;1.92;;
62711;SDS011;48772;55.586;37.730;2023-07-13T00:20:20;5.45;;;2.00;;
62711;SDS011;48772;55.586;37.730;2023-07-13T00:22:48;3.60;;;2.30;;
62711;SDS011;48772;55.586;37.730;2023-07-13T00:25:15;2.50;;;1.90;;
62711;SDS011;48772;55.586;37.730;2023-07-13T00:27:42;2.53;;;2.05;;
62711;SDS011;48772;55.586;37.730;2023-07-13T00:30:09;2.25;;;2.03;;
62711;SDS011;48772;55.586;37.730;2023-07-13T00:32:37;5.32;;;2.35;;
62711;SDS011;48772;55.586;37.730;2023-07-13T00:35:03;2.03;;;1.80;;
62711;SDS011;48772;55.586;37.730;2023-07-13T00:37:31;4.05;;;2.28;;
62711;SDS011;48772;55.586;37.730;2023-07-13T00:39:57;2.40;;;2.20;;
62711;SDS011;48772;55.586;37.730;2023-07-13T00:42:23;2.17;;;1.95;;
62711;SDS011;48772;55.586;37.730;2023-07-13T00:45:06;2.90;;;2.58;;
62711;SDS011;48772;55.586;37.730;2023-07-13T00:47:41;2.90;;;2.60;;
62711;SDS011;48772;55.586;37.730;2023-07-13T00:50:14;2.38;;;2.17;;
62711;SDS011;48772;55.586;37.730;2023-07-13T00:52:43;2.67;;;2.15;;
62711;SDS011;48772;55.586;37.730;2023-07-13T00:55:12;3.05;;;2.13;;
62711;SDS011;48772;55.586;37.730;2023-07-13T00:57:40;4.57;;;3.00;;
62711;SDS011;48772;55.586;37.730;2023-07-13T01:00:07;4.47;;;2.45;;
62711;SDS011;48772;55.586;37.730;2023-07-13T01:02:38;6.47;;;3.65;;
62711;SDS011;48772;55.586;37.730;2023-07-13T01:05:16;3.88;;;2.42;;
62711;SDS011;48772;55.586;37.730;2023-07-13T01:07:44;3.88;;;2.80;;
62711;SDS011;48772;55.586;37.730;2023-07-13T01:10:26;5.50;;;2.33;;
62711;SDS011;48772;55.586;37.730;2023-07-13T01:12:53;3.35;;;2.30;;
62711;SDS011;48772;55.586;37.730;2023-07-13T01:15:39;4.60;;;2.33;;
62711;SDS011;48772;55.586;37.730;2023-07-13T01:18:17;2.72;;;2.40;;
62711;SDS011;48772;55.586;37.730;2023-07-13T01:21:04;2.47;;;2.08;;
62711;SDS011;48772;55.586;37.730;2023-07-13T01:25:58;2.75;;;1.83;;
62711;SDS011;48772;55.586;37.730;2023-07-13T01:28:25;3.22;;;2.13;;
62711;SDS011;48772;55.586;37.730;2023-07-13T01:30:56;3.85;;;1.98;;
62711;SDS011;48772;55.586;37.730;2023-07-13T01:33:24;2.80;;;1.90;;
62711;SDS011;48772;55.586;37.730;2023-07-13T01:35:50;1.90;;;1.70;;
62711;SDS011;48772;55.586;37.730;2023-07-13T01:38:17;2.40;;;1.60;;
62711;SDS011;48772;55.586;37.730;2023-07-13T01:40:44;6.00;;;1.73;;
62711;SDS011;48772;55.586;37.730;2023-07-13T01:43:10;4.07;;;2.10;;
62711;SDS011;48772;55.586;37.730;2023-07-13T01:45:37;2.50;;;2.25;;
62711;SDS011;48772;55.586;37.730;2023-07-13T01:48:03;6.18;;;2.42;;
62711;SDS011;48772;55.586;37.730;2023-07-13T01:50:33;4.28;;;2.13;;
62711;SDS011;48772;55.586;37.730;2023-07-13T01:52:59;5.90;;;2.25;;
62711;SDS011;48772;55.586;37.730;2023-07-13T01:55:25;3.25;;;2.03;;
62711;SDS011;48772;55.586;37.730;2023-07-13T01:57:51;3.55;;;2.40;;
62711;SDS011;48772;55.586;37.730;2023-07-13T02:00:17;3.42;;;2.13;;
62711;SDS011;48772;55.586;37.730;2023-07-13T02:02:47;5.28;;;2.28;;
62711;SDS011;48772;55.586;37.730;2023-07-13T02:05:14;2.50;;;2.13;;
62711;SDS011;48772;55.586;37.730;2023-07-13T02:07:41;4.05;;;2.00;;
62711;SDS011;48772;55.586;37.730;2023-07-13T02:10:08;6.00;;;2.40;;
62711;SDS011;48772;55.586;37.730;2023-07-13T02:12:36;2.80;;;2.50;;
62711;SDS011;48772;55.586;37.730;2023-07-13T02:15:03;3.83;;;2.13;;
62711;SDS011;48772;55.586;37.730;2023-07-13T02:17:34;4.28;;;2.47;;
62711;SDS011;48772;55.586;37.730;2023-07-13T02:20:03;3.53;;;2.20;;
62711;SDS011;48772;55.586;37.730;2023-07-13T02:22:32;2.45;;;2.25;;
62711;SDS011;48772;55.586;37.730;2023-07-13T02:24:58;4.15;;;2.28;;
62711;SDS011;48772;55.586;37.730;2023-07-13T02:27:25;2.60;;;1.95;;
62711;SDS011;48772;55.586;37.730;2023-07-13T02:29:51;2.45;;;2.20;;
62711;SDS011;48772;55.586;37.730;2023-07-13T02:32:20;6.32;;;2.30;;
62711;SDS011;48772;55.586;37.730;2023-07-13T02:34:46;4.40;;;2.38;;
62711;SDS011;48772;55.586;37.730;2023-07-13T02:37:15;2.65;;;1.88;;
62711;SDS011;48772;55.586;37.730;2023-07-13T02:39:41;2.58;;;2.30;;
62711;SDS011;48772;55.586;37.730;2023-07-13T02:42:06;4.60;;;2.38;;
62711;SDS011;48772;55.586;37.730;2023-07-13T02:44:32;2.72;;;2.50;;
62711;SDS011;48772;55.586;37.730;2023-07-13T02:46:58;3.15;;;2.47;;
62711;SDS011;48772;55.586;37.730;2023-07-13T02:49:24;2.72;;;2.30;;
62711;SDS011;48772;55.586;37.730;2023-07-13T02:51:50;3.70;;;2.30;;
62711;SDS011;48772;55.586;37.730;2023-07-13T02:54:16;2.83;;;2.22;;
62711;SDS011;48772;55.586;37.730;2023-07-13T02:56:42;9.93;;;2.30;;
62711;SDS011;48772;55.586;37.730;2023-07-13T02:59:09;5.10;;;2.25;;
62711;SDS011;48772;55.586;37.730;2023-07-13T03:01:35;2.63;;;2.30;;
62711;SDS011;48772;55.586;37.730;2023-07-13T03:04:02;7.05;;;2.60;;
62711;SDS011;48772;55.586;37.730;2023-07-13T03:06:32;3.20;;;2.40;;
62711;SDS011;48772;55.586;37.730;2023-07-13T03:08:59;4.13;;;2.35;;
62711;SDS011;48772;55.586;37.730;2023-07-13T03:11:26;6.43;;;2.75;;
62711;SDS011;48772;55.586;37.730;2023-07-13T03:14:04;5.28;;;2.50;;
62711;SDS011;48772;55.586;37.730;2023-07-13T03:16:34;6.63;;;2.63;;
62711;SDS011;48772;55.586;37.730;2023-07-13T03:19:00;6.22;;;2.50;;
62711;SDS011;48772;55.586;37.730;2023-07-13T03:21:26;2.55;;;2.35;;
62711;SDS011;48772;55.586;37.730;2023-07-13T03:23:53;2.88;;;2.40;;
62711;SDS011;48772;55.586;37.730;2023-07-13T03:26:19;6.93;;;2.47;;
62711;SDS011;48772;55.586;37.730;2023-07-13T03:28:46;3.83;;;2.28;;
62711;SDS011;48772;55.586;37.730;2023-07-13T03:31:18;3.28;;;2.13;;
62711;SDS011;48772;55.586;37.730;2023-07-13T03:33:46;5.00;;;2.47;;
62711;SDS011;48772;55.586;37.730;2023-07-13T03:36:15;4.47;;;2.70;;
62711;SDS011;48772;55.586;37.730;2023-07-13T03:38:50;3.22;;;2.63;;
62711;SDS011;48772;55.586;37.730;2023-07-13T03:41:22;2.88;;;2.28;;
62711;SDS011;48772;55.586;37.730;2023-07-13T03:43:50;3.97;;;2.63;;
62711;SDS011;48772;55.586;37.730;2023-07-13T03:46:19;2.72;;;2.47;;
62711;SDS011;48772;55.586;37.730;2023-07-13T03:48:50;2.70;;;2.25;;
62711;SDS011;48772;55.586;37.730;2023-07-13T03:51:17;4.82;;;2.10;;
62711;SDS011;48772;55.586;37.730;2023-07-13T03:53:44;4.25;;;2.22;;
62711;SDS011;48772;55.586;37.730;2023-07-13T03:56:14;4.22;;;2.47;;
62711;SDS011;48772;55.586;37.730;2023-07-13T03:58:41;4.43;;;2.83;;
62711;SDS011;48772;55.586;37.730;2023-07-13T04:01:19;5.90;;;2.22;;
62711;SDS011;48772;55.586;37.730;2023-07-13T04:03:47;3.60;;;2.40;;
62711;SDS011;48772;55.586;37.730;2023-07-13T04:06:18;5.80;;;2.60;;
62711;SDS011;48772;55.586;37.730;2023-07-13T04:08:51;4.00;;;2.50;;
62711;SDS011;48772;55.586;37.730;2023-07-13T04:11:18;5.15;;;2.65;;
62711;SDS011;48772;55.586;37.730;2023-07-13T04:13:46;3.17;;;2.30;;
62711;SDS011;48772;55.586;37.730;2023-07-13T04:16:13;2.20;;;1.95;;
62711;SDS011;48772;55.586;37.730;2023-07-13T04:18:39;6.25;;;2.30;;
62711;SDS011;48772;55.586;37.730;2023-07-13T04:21:07;4.00;;;2.20;;
62711;SDS011;48772;55.586;37.730;2023-07-13T04:23:34;4.10;;;2.13;;
62711;SDS011;48772;55.586;37.730;2023-07-13T04:26:01;4.25;;;2.30;;
62711;SDS011;48772;55.586;37.730;2023-07-13T04:28:27;4.05;;;2.45;;
62711;SDS011;48772;55.586;37.730;2023-07-13T04:30:53;4.07;;;2.22;;
62711;SDS011;48772;55.586;37.730;2023-07-13T04:33:20;5.47;;;2.58;;
62711;SDS011;48772;55.586;37.730;2023-07-13T04:35:53;4.90;;;2.63;;
62711;SDS011;48772;55.586;37.730;2023-07-13T04:38:29;5.72;;;2.63;;
62711;SDS011;48772;55.586;37.730;2023-07-13T04:40:57;3.17;;;2.50;;
62711;SDS011;48772;55.586;37.730;2023-07-13T04:43:25;2.55;;;1.75;;
62711;SDS011;48772;55.586;37.730;2023-07-13T04:45:51;3.40;;;2.33;;
62711;SDS011;48772;55.586;37.730;2023-07-13T04:48:18;4.05;;;2.50;;
62711;SDS011;48772;55.586;37.730;2023-07-13T04:50:45;7.75;;;2.55;;
62711;SDS011;48772;55.586;37.730;2023-07-13T04:53:12;6.50;;;2.65;;
62711;SDS011;48772;55.586;37.730;2023-07-13T04:55:38;7.25;;;2.67;;
62711;SDS011;48772;55.586;37.730;2023-07-13T04:58:04;4.18;;;2.60;;
62711;SDS011;48772;55.586;37.730;2023-07-13T05:00:30;7.75;;;2.60;;
62711;SDS011;48772;55.586;37.730;2023-07-13T05:02:57;3.33;;;2.08;;
62711;SDS011;48772;55.586;37.730;2023-07-13T05:05:25;5.70;;;2.58;;
62711;SDS011;48772;55.586;37.730;2023-07-13T05:07:53;6.20;;;2.50;;
62711;SDS011;48772;55.586;37.730;2023-07-13T05:10:19;3.33;;;2.45;;
62711;SDS011;48772;55.586;37.730;2023-07-13T05:12:46;4.97;;;2.60;;
62711;SDS011;48772;55.586;37.730;2023-07-13T05:15:12;2.92;;;2.30;;
62711;SDS011;48772;55.586;37.730;2023-07-13T05:17:38;5.28;;;2.30;;
62711;SDS011;48772;55.586;37.730;2023-07-13T05:20:06;4.15;;;2.38;;
62711;SDS011;48772;55.586;37.730;2023-07-13T05:22:34;4.60;;;2.22;;
62711;SDS011;48772;55.586;37.730;2023-07-13T05:25:04;2.35;;;2.15;;
62711;SDS011;48772;55.586;37.730;2023-07-13T05:27:31;2.25;;;1.92;;
62711;SDS011;48772;55.586;37.730;2023-07-13T05:29:57;2.92;;;2.20;;
62711;SDS011;48772;55.586;37.730;2023-07-13T05:32:23;5.80;;;2.17;;
62711;SDS011;48772;55.586;37.730;2023-07-13T05:34:49;3.90;;;2.17;;
62711;SDS011;48772;55.586;37.730;2023-07-13T05:37:15;5.78;;;2.22;;
62711;SDS011;48772;55.586;37.730;2023-07-13T05:39:41;3.30;;;2.30;;
62711;SDS011;48772;55.586;37.730;2023-07-13T05:42:07;6.07;;;2.50;;
62711;SDS011;48772;55.586;37.730;2023-07-13T05:44:37;11.13;;;3.05;;
62711;SDS011;48772;55.586;37.730;2023-07-13T05:47:04;5.47;;;2.58;;
62711;SDS011;48772;55.586;37.730;2023-07-13T05:49:31;2.65;;;1.90;;
62711;SDS011;48772;55.586;37.730;2023-07-13T05:51:58;7.03;;;2.28;;
62711;SDS011;48772;55.586;37.730;2023-07-13T05:54:25;3.58;;;2.10;;
62711;SDS011;48772;55.586;37.730;2023-07-13T05:56:52;4.63;;;2.13;;
62711;SDS011;48772;55.586;37.730;2023-07-13T05:59:19;7.82;;;2.40;;
62711;SDS011;48772;55.586;37.730;2023-07-13T06:01:45;7.95;;;2.47;;
62711;SDS011;48772;55.586;37.730;2023-07-13T06:04:11;6.72;;;2.50;;
62711;SDS011;48772;55.586;37.730;2023-07-13T06:06:39;4.22;;;2.30;;
62711;SDS011;48772;55.586;37.730;2023-07-13T06:09:05;5.32;;;2.30;;
62711;SDS011;48772;55.586;37.730;2023-07-13T06:11:31;3.70;;;2.10;;
62711;SDS011;48772;55.586;37.730;2023-07-13T06:13:57;8.38;;;2.40;;
62711;SDS011;48772;55.586;37.730;2023-07-13T06:16:24;3.70;;;2.30;;
62711;SDS011;48772;55.586;37.730;2023-07-13T06:18:51;4.60;;;2.03;;
62711;SDS011;48772;55.586;37.730;2023-07-13T06:21:21;4.45;;;1.58;;
62711;SDS011;48772;55.586;37.730;2023-07-13T06:23:49;6.15;;;2.35;;
62711;SDS011;48772;55.586;37.730;2023-07-13T06:26:17;4.95;;;2.30;;
62711;SDS011;48772;55.586;37.730;2023-07-13T06:28:45;3.17;;;2.13;;
62711;SDS011;48772;55.586;37.730;2023-07-13T06:31:12;5.45;;;2.30;;
62711;SDS011;48772;55.586;37.730;2023-07-13T06:33:39;4.72;;;2.50;;
62711;SDS011;48772;55.586;37.730;2023-07-13T06:36:06;3.55;;;2.13;;
62711;SDS011;48772;55.586;37.730;2023-07-13T06:38:33;3.30;;;1.65;;
62711;SDS011;48772;55.586;37.730;2023-07-13T06:40:59;2.22;;;2.03;;
62711;SDS011;48772;55.586;37.730;2023-07-13T06:43:25;4.35;;;2.25;;
62711;SDS011;48772;55.586;37.730;2023-07-13T06:45:51;2.13;;;1.92;;
62711;SDS011;48772;55.586;37.730;2023-07-13T06:48:19;4.70;;;2.13;;
62711;SDS011;48772;55.586;37.730;2023-07-13T06:50:45;2.92;;;2.30;;
62711;SDS011;48772;55.586;37.730;2023-07-13T06:53:15;4.22;;;2.00;;
62711;SDS011;48772;55.586;37.730;2023-07-13T06:55:43;2.20;;;2.00;;
62711;SDS011;48772;55.586;37.730;2023-07-13T06:58:10;7.03;;;3.22;;
62711;SDS011;48772;55.586;37.730;2023-07-13T07:00:36;3.55;;;1.90;;
62711;SDS011;48772;55.586;37.730;2023-07-13T07:03:02;2.58;;;1.83;;
62711;SDS011;48772;55.586;37.730;2023-07-13T07:05:28;3.88;;;1.98;;
62711;SDS011;48772;55.586;37.730;2023-07-13T07:07:54;2.70;;;1.92;;
62711;SDS011;48772;55.586;37.730;2023-07-13T07:10:21;6.13;;;1.90;;
62711;SDS011;48772;55.586;37.730;2023-07-13T07:12:47;4.50;;;2.05;;
62711;SDS011;48772;55.586;37.730;2023-07-13T07:15:13;4.47;;;2.80;;
62711;SDS011;48772;55.586;37.730;2023-07-13T07:17:39;6.50;;;2.85;;
62711;SDS011;48772;55.586;37.730;2023-07-13T07:20:05;5.70;;;1.80;;
62711;SDS011;48772;55.586;37.730;2023-07-13T07:22:32;5.72;;;2.10;;
62711;SDS011;48772;55.586;37.730;2023-07-13T07:24:58;9.98;;;2.25;;
62711;SDS011;48772;55.586;37.730;2023-07-13T07:27:24;5.90;;;2.20;;
62711;SDS011;48772;55.586;37.730;2023-07-13T07:29:50;3.83;;;1.90;;
62711;SDS011;48772;55.586;37.730;2023-07-13T07:32:16;3.95;;;2.15;;
62711;SDS011;48772;55.586;37.730;2023-07-13T07:34:42;2.92;;;1.75;;
62711;SDS011;48772;55.586;37.730;2023-07-13T07:37:09;3.42;;;2.10;;
62711;SDS011;48772;55.586;37.730;2023-07-13T07:39:37;7.00;;;2.15;;
62711;SDS011;48772;55.586;37.730;2023-07-13T07:42:03;4.45;;;2.70;;
62711;SDS011;48772;55.586;37.730;2023-07-13T07:44:30;7.93;;;2.70;;
62711;SDS011;48772;55.586;37.730;2023-07-13T07:46:57;10.95;;;3.10;;
62711;SDS011;48772;55.586;37.730;2023-07-13T07:49:23;8.15;;;2.90;;
62711;SDS011;48772;55.586;37.730;2023-07-13T07:51:49;3.80;;;1.98;;
62711;SDS011;48772;55.586;37.730;2023-07-13T07:54:15;4.70;;;2.47;;
62711;SDS011;48772;55.586;37.730;2023-07-13T07:56:41;3.20;;;2.20;;
62711;SDS011;48772;55.586;37.730;2023-07-13T07:59:07;6.43;;;2.55;;
62711;SDS011;48772;55.586;37.730;2023-07-13T08:01:33;6.22;;;2.40;;
62711;SDS011;48772;55.586;37.730;2023-07-13T08:03:59;11.18;;;2.40;;
62711;SDS011;48772;55.586;37.730;2023-07-13T08:06:24;4.28;;;2.08;;
62711;SDS011;48772;55.586;37.730;2023-07-13T08:08:50;7.97;;;2.67;;
62711;SDS011;48772;55.586;37.730;2023-07-13T08:11:16;2.75;;;2.22;;
62711;SDS011;48772;55.586;37.730;2023-07-13T08:13:43;11.73;;;2.67;;
62711;SDS011;48772;55.586;37.730;2023-07-13T08:16:09;6.60;;;3.00;;
62711;SDS011;48772;55.586;37.730;2023-07-13T08:18:34;11.05;;;3.10;;
62711;SDS011;48772;55.586;37.730;2023-07-13T08:21:06;6.15;;;3.42;;
62711;SDS011;48772;55.586;37.730;2023-07-13T08:23:34;3.90;;;2.15;;
62711;SDS011;48772;55.586;37.730;2023-07-13T08:26:00;5.47;;;1.77;;
62711;SDS011;48772;55.586;37.730;2023-07-13T08:28:27;5.10;;;2.20;;
62711;SDS011;48772;55.586;37.730;2023-07-13T08:30:54;5.32;;;1.88;;
62711;SDS011;48772;55.586;37.730;2023-07-13T08:33:20;2.85;;;2.22;;
62711;SDS011;48772;55.586;37.730;2023-07-13T08:35:50;6.05;;;2.45;;
62711;SDS011;48772;55.586;37.730;2023-07-13T08:38:16;3.63;;;2.15;;
62711;SDS011;48772;55.586;37.730;2023-07-13T08:40:43;2.72;;;2.10;;
62711;SDS011;48772;55.586;37.730;2023-07-13T08:43:14;2.40;;;2.05;;
62711;SDS011;48772;55.586;37.730;2023-07-13T08:45:46;3.10;;;1.85;;
62711;SDS011;48772;55.586;37.730;2023-07-13T08:48:18;3.42;;;2.13;;
62711;SDS011;48772;55.586;37.730;2023-07-13T08:54:03;4.85;;;1.60;;
62711;SDS011;48772;55.586;37.730;2023-07-13T08:56:35;7.13;;;2.40;;
62711;SDS011;48772;55.586;37.730;2023-07-13T08:59:11;5.22;;;2.35;;
62711;SDS011;48772;55.586;37.730;2023-07-13T09:01:47;2.38;;;1.80;;
62711;SDS011;48772;55.586;37.730;2023-07-13T09:04:28;3.97;;;2.20;;
62711;SDS011;48772;55.586;37.730;2023-07-13T09:15:21;6.05;;;2.90;;
62711;SDS011;48772;55.586;37.730;2023-07-13T09:17:49;2.80;;;2.40;;
62711;SDS011;48772;55.586;37.730;2023-07-13T09:28:59;6.43;;;2.63;;
62711;SDS011;48772;55.586;37.730;2023-07-13T09:31:49;4.32;;;2.50;;
62711;SDS011;48772;55.586;37.730;2023-07-13T09:36:52;5.82;;;2.90;;
62711;SDS011;48772;55.586;37.730;2023-07-13T09:42:12;4.15;;;2.63;;
62711;SDS011;48772;55.586;37.730;2023-07-13T09:47:17;7.28;;;3.33;;
62711;SDS011;48772;55.586;37.730;2023-07-13T09:49:53;5.47;;;3.08;;
62711;SDS011;48772;55.586;37.730;2023-07-13T09:52:21;4.47;;;2.85;;
62711;SDS011;48772;55.586;37.730;2023-07-13T09:54:48;4.75;;;2.75;;
62711;SDS011;48772;55.586;37.730;2023-07-13T09:57:22;3.97;;;2.78;;
62711;SDS011;48772;55.586;37.730;2023-07-13T09:59:50;10.90;;;3.40;;
62711;SDS011;48772;55.586;37.730;2023-07-13T10:02:34;6.32;;;2.95;;
62711;SDS011;48772;55.586;37.730;2023-07-13T10:05:04;3.72;;;2.80;;
62711;SDS011;48772;55.586;37.730;2023-07-13T10:07:41;12.02;;;2.60;;
62711;SDS011;48772;55.586;37.730;2023-07-13T10:10:20;5.03;;;2.67;;
62711;SDS011;48772;55.586;37.730;2023-07-13T10:12:48;4.57;;;3.00;;
62711;SDS011;48772;55.586;37.730;2023-07-13T10:15:18;7.10;;;3.20;;
62711;SDS011;48772;55.586;37.730;2023-07-13T10:17:47;4.20;;;2.63;;
62711;SDS011;48772;55.586;37.730;2023-07-13T10:20:14;5.15;;;2.85;;
62711;SDS011;48772;55.586;37.730;2023-07-13T10:22:45;4.90;;;3.13;;
62711;SDS011;48772;55.586;37.730;2023-07-13T10:25:22;4.68;;;2.97;;
62711;SDS011;48772;55.586;37.730;2023-07-13T10:27:51;6.75;;;3.00;;
62711;SDS011;48772;55.586;37.730;2023-07-13T10:30:34;3.83;;;2.67;;
62711;SDS011;48772;55.586;37.730;2023-07-13T10:33:08;5.18;;;2.70;;
62711;SDS011;48772;55.586;37.730;2023-07-13T10:35:38;6.13;;;3.10;;
62711;SDS011;48772;55.586;37.730;2023-07-13T10:38:11;10.60;;;3.40;;
62711;SDS011;48772;55.586;37.730;2023-07-13T10:40:40;8.05;;;3.25;;
62711;SDS011;48772;55.586;37.730;2023-07-13T10:43:13;6.15;;;3.85;;
62711;SDS011;48772;55.586;37.730;2023-07-13T10:45:46;7.85;;;2.90;;
62711;SDS011;48772;55.586;37.730;2023-07-13T10:48:17;5.15;;;3.45;;
62711;SDS011;48772;55.586;37.730;2023-07-13T10:50:45;7.07;;;3.00;;
62711;SDS011;48772;55.586;37.730;2023-07-13T10:53:29;7.50;;;3.60;;
62711;SDS011;48772;55.586;37.730;2023-07-13T10:55:59;8.77;;;3.85;;
62711;SDS011;48772;55.586;37.730;2023-07-13T10:58:36;6.15;;;3.88;;
62711;SDS011;48772;55.586;37.730;2023-07-13T11:01:09;5.10;;;2.92;;
62711;SDS011;48772;55.586;37.730;2023-07-13T11:06:11;6.45;;;2.55;;
62711;SDS011;48772;55.586;37.730;2023-07-13T11:08:50;3.92;;;2.78;;
62711;SDS011;48772;55.586;37.730;2023-07-13T11:18:49;7.03;;;3.45;;
62711;SDS011;48772;55.586;37.730;2023-07-13T11:21:34;6.45;;;3.03;;
62711;SDS011;48772;55.586;37.730;2023-07-13T11:26:37;5.63;;;3.10;;
62711;SDS011;48772;55.586;37.730;2023-07-13T11:29:26;3.40;;;2.25;;
62711;SDS011;48772;55.586;37.730;2023-07-13T11:31:59;5.00;;;2.40;;
62711;SDS011;48772;55.586;37.730;2023-07-13T11:34:32;4.80;;;2.90;;
62711;SDS011;48772;55.586;37.730;2023-07-13T11:37:01;4.78;;;2.97;;
62711;SDS011;48772;55.586;37.730;2023-07-13T11:39:39;2.90;;;1.95;;
62711;SDS011;48772;55.586;37.730;2023-07-13T11:42:10;2.92;;;2.05;;
62711;SDS011;48772;55.586;37.730;2023-07-13T11:44:43;3.97;;;1.88;;
62711;SDS011;48772;55.586;37.730;2023-07-13T11:47:19;2.33;;;1.80;;
62711;SDS011;48772;55.586;37.730;2023-07-13T11:49:54;3.05;;;2.10;;
62711;SDS011;48772;55.586;37.730;2023-07-13T11:52:32;4.43;;;2.03;;
62711;SDS011;48772;55.586;37.730;2023-07-13T11:55:04;4.50;;;2.58;;
62711;SDS011;48772;55.586;37.730;2023-07-13T11:57:42;6.30;;;3.55;;
62711;SDS011;48772;55.586;37.730;2023-07-13T12:00:17;4.78;;;3.75;;
62711;SDS011;48772;55.586;37.730;2023-07-13T12:02:51;6.25;;;3.10;;
62711;SDS011;48772;55.586;37.730;2023-07-13T12:05:19;6.75;;;3.35;;
62711;SDS011;48772;55.586;37.730;2023-07-13T12:07:48;6.03;;;3.38;;
62711;SDS011;48772;55.586;37.730;2023-07-13T12:12:57;8.65;;;3.15;;
62711;SDS011;48772;55.586;37.730;2023-07-13T12:15:39;5.30;;;3.08;;
62711;SDS011;48772;55.586;37.730;2023-07-13T12:18:14;5.32;;;2.78;;
62711;SDS011;48772;55.586;37.730;2023-07-13T12:20:41;5.18;;;2.92;;
62711;SDS011;48772;55.586;37.730;2023-07-13T12:23:15;5.60;;;3.35;;
62711;SDS011;48772;55.586;37.730;2023-07-13T12:25:46;4.60;;;3.28;;
62711;SDS011;48772;55.586;37.730;2023-07-13T12:28:22;5.85;;;3.95;;
62711;SDS011;48772;55.586;37.730;2023-07-13T12:31:00;5.75;;;2.60;;
62711;SDS011;48772;55.586;37.730;2023-07-13T12:33:29;8.02;;;3.90;;
62711;SDS011;48772;55.586;37.730;2023-07-13T12:35:56;5.30;;;2.95;;
62711;SDS011;48772;55.586;37.730;2023-07-13T12:38:24;2.78;;;2.53;;
62711;SDS011;48772;55.586;37.730;2023-07-13T12:40:51;4.38;;;2.80;;
62711;SDS011;48772;55.586;37.730;2023-07-13T12:43:19;6.85;;;3.10;;
62711;SDS011;48772;55.586;37.730;2023-07-13T12:45:58;4.65;;;2.78;;
62711;SDS011;48772;55.586;37.730;2023-07-13T12:48:26;5.78;;;2.47;;
62711;SDS011;48772;55.586;37.730;2023-07-13T12:50:54;1.88;;;1.75;;
62711;SDS011;48772;55.586;37.730;2023-07-13T12:53:23;3.78;;;2.00;;
62711;SDS011;48772;55.586;37.730;2023-07-13T12:55:54;4.18;;;2.70;;
62711;SDS011;48772;55.586;37.730;2023-07-13T12:58:26;8.43;;;3.40;;
62711;SDS011;48772;55.586;37.730;2023-07-13T13:00:56;7.20;;;4.10;;
62711;SDS011;48772;55.586;37.730;2023-07-13T13:03:45;8.48;;;4.60;;
62711;SDS011;48772;55.586;37.730;2023-07-13T13:08:48;21.50;;;4.97;;
62711;SDS011;48772;55.586;37.730;2023-07-13T13:11:16;12.20;;;5.20;;
62711;SDS011;48772;55.586;37.730;2023-07-13T13:13:46;8.60;;;4.00;;
62711;SDS011;48772;55.586;37.730;2023-07-13T13:16:15;6.60;;;3.20;;
62711;SDS011;48772;55.586;37.730;2023-07-13T13:18:52;8.43;;;3.40;;
62711;SDS011;48772;55.586;37.730;2023-07-13T13:21:24;6.75;;;2.38;;
62711;SDS011;48772;55.586;37.730;2023-07-13T13:23:50;9.20;;;3.60;;
62711;SDS011;48772;55.586;37.730;2023-07-13T13:26:17;10.10;;;3.05;;
62711;SDS011;48772;55.586;37.730;2023-07-13T13:28:45;6.68;;;2.88;;
62711;SDS011;48772;55.586;37.730;2023-07-13T13:31:13;10.45;;;2.92;;
62711;SDS011;48772;55.586;37.730;2023-07-13T13:33:41;5.18;;;3.00;;
62711;SDS011;48772;55.586;37.730;2023-07-13T13:36:18;12.32;;;3.13;;
62711;SDS011;48772;55.586;37.730;2023-07-13T13:38:46;8.88;;;3.20;;
62711;SDS011;48772;55.586;37.730;2023-07-13T13:41:13;6.70;;;3.42;;
62711;SDS011;48772;55.586;37.730;2023-07-13T13:43:40;11.45;;;3.78;;
62711;SDS011;48772;55.586;37.730;2023-07-13T13:49:08;6.38;;;3.20;;
62711;SDS011;48772;55.586;37.730;2023-07-13T13:51:41;9.05;;;2.60;;
62711;SDS011;48772;55.586;37.730;2023-07-13T13:54:11;7.47;;;3.00;;
62711;SDS011;48772;55.586;37.730;2023-07-13T13:56:41;10.63;;;3.40;;
62711;SDS011;48772;55.586;37.730;2023-07-13T13:59:07;9.45;;;3.15;;
62711;SDS011;48772;55.586;37.730;2023-07-13T14:01:34;7.38;;;3.33;;
62711;SDS011;48772;55.586;37.730;2023-07-13T14:04:01;5.13;;;2.90;;
62711;SDS011;48772;55.586;37.730;2023-07-13T14:06:27;4.72;;;2.50;;
62711;SDS011;48772;55.586;37.730;2023-07-13T14:08:54;5.30;;;3.15;;
62711;SDS011;48772;55.586;37.730;2023-07-13T14:11:23;6.30;;;3.10;;
62711;SDS011;48772;55.586;37.730;2023-07-13T14:13:51;6.95;;;3.28;;
62711;SDS011;48772;55.586;37.730;2023-07-13T14:16:22;5.53;;;3.05;;
62711;SDS011;48772;55.586;37.730;2023-07-13T14:18:53;7.13;;;2.70;;
62711;SDS011;48772;55.586;37.730;2023-07-13T14:21:22;3.85;;;3.17;;
62711;SDS011;48772;55.586;37.730;2023-07-13T14:23:48;8.43;;;4.88;;
62711;SDS011;48772;55.586;37.730;2023-07-13T14:26:17;7.03;;;3.63;;
62711;SDS011;48772;55.586;37.730;2023-07-13T14:28:51;4.32;;;3.20;;
62711;SDS011;48772;55.586;37.730;2023-07-13T14:31:19;8.63;;;3.97;;
62711;SDS011;48772;55.586;37.730;2023-07-13T14:33:46;8.10;;;3.95;;
62711;SDS011;48772;55.586;37.730;2023-07-13T14:36:47;5.78;;;2.83;;
62711;SDS011;48772;55.586;37.730;2023-07-13T14:39:11;6.38;;;2.80;;
62711;SDS011;48772;55.586;37.730;2023-07-13T14:41:39;3.90;;;2.63;;
62711;SDS011;48772;55.586;37.730;2023-07-13T14:44:12;5.47;;;2.90;;
62711;SDS011;48772;55.586;37.730;2023-07-13T14:46:43;7.93;;;3.03;;
62711;SDS011;48772;55.586;37.730;2023-07-13T14:52:05;3.22;;;2.22;;
62711;SDS011;48772;55.586;37.730;2023-07-13T14:54:42;5.75;;;2.78;;
62711;SDS011;48772;55.586;37.730;2023-07-13T14:57:10;5.47;;;2.55;;
62711;SDS011;48772;55.586;37.730;2023-07-13T14:59:37;8.23;;;3.20;;
62711;SDS011;48772;55.586;37.730;2023-07-13T15:02:08;10.05;;;3.55;;
62711;SDS011;48772;55.586;37.730;2023-07-13T15:04:52;7.30;;;3.25;;
62711;SDS011;48772;55.586;37.730;2023-07-13T15:07:18;14.48;;;4.10;;
62711;SDS011;48772;55.586;37.730;2023-07-13T15:09:46;7.95;;;3.78;;
62711;SDS011;48772;55.586;37.730;2023-07-13T15:12:13;11.93;;;3.70;;
62711;SDS011;48772;55.586;37.730;2023-07-13T15:14:39;8.40;;;2.78;;
62711;SDS011;48772;55.586;37.730;2023-07-13T15:17:08;10.82;;;2.97;;
62711;SDS011;48772;55.586;37.730;2023-07-13T15:19:51;12.52;;;4.30;;
62711;SDS011;48772;55.586;37.730;2023-07-13T15:22:17;9.35;;;4.05;;
62711;SDS011;48772;55.586;37.730;2023-07-13T15:24:44;11.45;;;3.25;;
62711;SDS011;48772;55.586;37.730;2023-07-13T15:27:11;7.63;;;2.70;;
62711;SDS011;48772;55.586;37.730;2023-07-13T15:29:37;8.40;;;3.75;;
62711;SDS011;48772;55.586;37.730;2023-07-13T15:32:12;3.17;;;2.72;;
62711;SDS011;48772;55.586;37.730;2023-07-13T15:34:39;6.10;;;3.00;;
62711;SDS011;48772;55.586;37.730;2023-07-13T15:37:09;3.47;;;2.40;;
62711;SDS011;48772;55.586;37.730;2023-07-13T15:39:40;5.65;;;3.00;;